Latest Weather Observations for Snowtown

IDS60801

Issued at 11:05 am CDT Tuesday 25 November 2014 (issued every 30 minutes, with the page automatically refreshed every 10 minutes)

About weather observations | Map of weather stations | Latest weather observations for SA | Other Formats
Station Details ID: 021133 Name: RAYVILLE PARK Lat: -33.77 Lon: 138.22 Height: 109.1 m
Data from the previous 72 hours. | See also: Recent months at Snowtown
Date/Time
CDT
Temp
°C
App
Temp
°C
Dew
Point
Rel
Hum
%
Delta-T
°C
Wind Press
QNH
hPa
Press
MSL
hPa
Rain
since 9 am
mm
Dir
 
Spd
km/h
Gust
km/h
Spd
kts
Gust
kts
25/11:00am 19.9 15.7 4.0 35 7.6 SSE 15 22 8 12 1023.0 1022.7 0.0
25/10:30am 19.2 15.1 4.2 37 7.2 SE 15 24 8 13 1023.2 1022.9 0.0
25/10:00am 18.4 14.7 6.3 45 6.0 SE 15 22 8 12 1023.4 1023.1 0.0
25/09:30am 17.3 14.3 5.9 47 5.6 S 11 19 6 10 1023.6 1023.3 0.0
25/09:00am 16.1 13.3 7.1 55 4.5 S 11 20 6 11 1023.6 1023.3 0.0
25/08:30am 15.0 12.8 7.8 62 3.6 NE 9 17 5 9 1023.6 1023.3 0.0
25/08:00am 12.8 11.0 7.9 72 2.4 NNE 7 11 4 6 1023.4 1023.1 0.0
25/07:30am 11.9 10.2 8.2 78 1.8 NNE 7 9 4 5 1023.1 1022.8 0.0
25/07:00am 9.7 8.0 7.5 86 1.1 WSW 6 11 3 6 1022.7 1022.4 0.0
25/06:30am 8.3 7.7 7.2 93 0.5 CALM 0 0 0 0 1022.2 1022.0 0.0
25/06:00am 5.9 4.1 3.6 85 1.0 WSW 2 7 1 4 1021.8 1021.6 0.0
25/05:30am 9.0 8.3 7.0 87 0.9 CALM 0 0 0 0 1021.6 1021.4 0.0
25/05:00am 8.3 7.5 6.3 87 0.9 CALM 0 6 0 3 1021.4 1021.2 0.0
25/04:30am 9.0 6.5 6.6 85 1.1 SW 9 9 5 5 1021.1 1020.9 0.0
25/04:00am 7.5 4.0 5.6 88 0.9 SW 13 13 7 7 1020.7 1020.5 0.0
25/03:30am 7.6 4.1 5.4 86 1.0 SW 13 15 7 8 1020.5 1020.3 0.0
25/03:00am 7.2 4.3 4.9 85 1.0 S 9 9 5 5 1020.5 1020.3 0.0
25/02:30am 7.9 5.7 5.4 84 1.1 S 6 7 3 4 1020.6 1020.4 0.0
25/02:00am 8.9 6.1 5.3 78 1.6 S 9 11 5 6 1020.5 1020.3 0.0
25/01:30am 9.6 6.5 5.6 76 1.8 SSW 11 13 6 7 1020.6 1020.4 0.0
25/01:00am 9.5 6.3 5.3 75 1.9 SSW 11 13 6 7 1020.7 1020.5 0.0
25/12:30am 10.1 6.7 5.7 74 2.0 SW 13 15 7 8 1020.7 1020.5 0.0
25/12:00am 11.0 7.5 5.3 68 2.6 SW 13 17 7 9 1020.7 1020.5 0.0
 
Date/Time
CDT
Temp
°C
App
Temp
°C
Dew
Point
Rel
Hum
%
Delta-T
°C
Wind Press
QNH
hPa
Press
MSL
hPa
Rain
since 9 am
mm
Dir
 
Spd
km/h
Gust
km/h
Spd
kts
Gust
kts
24/11:30pm 11.7 8.0 6.2 69 2.6 SW 15 19 8 10 1020.5 1020.3 0.0
24/11:00pm 12.4 7.9 6.0 65 3.0 SW 19 24 10 13 1020.2 1020.0 0.0
24/10:30pm 13.3 8.6 6.2 62 3.4 SW 20 30 11 16 1019.8 1019.6 0.0
24/10:00pm 14.0 8.7 6.6 61 3.6 SW 24 32 13 17 1019.4 1019.1 0.0
24/09:30pm 14.2 9.2 6.6 60 3.7 SW 22 32 12 17 1018.8 1018.5 0.0
24/09:00pm 14.2 10.6 6.6 60 3.7 SW 15 20 8 11 1018.6 1018.3 0.0
24/08:30pm 15.5 10.8 6.0 53 4.6 SW 20 30 11 16 1018.0 1017.7 0.0
24/08:00pm 16.6 10.7 4.0 43 5.9 SSW 24 32 13 17 1017.7 1017.4 0.0
24/07:30pm 17.7 10.6 1.2 33 7.3 SW 28 35 15 19 1017.3 1017.0 0.0
24/07:00pm 19.0 11.5 1.5 31 7.9 SW 30 41 16 22 1016.7 1016.4 0.0
24/06:30pm 20.4 12.4 -2.0 22 9.6 SW 30 39 16 21 1016.2 1015.9 0.0
24/06:00pm 21.2 12.8 -2.6 20 10.1 SW 32 43 17 23 1015.8 1015.5 0.0
24/05:30pm 21.8 12.8 -0.2 23 9.9 SW 37 52 20 28 1015.6 1015.3 0.0
24/05:04pm 22.3 14.9 3.9 30 9.0 SW 32 50 17 27 1015.3 1015.0 0.0
24/05:00pm 22.0 14.1 4.1 31 8.7 WSW 35 50 19 27 1015.3 1015.0 0.0
24/04:30pm 23.4 16.3 5.3 31 9.1 SW 32 50 17 27 1015.1 1014.8 0.0
24/04:21pm 22.8 16.0 5.3 32 8.8 SW 30 50 16 27 1015.0 1014.7 0.0
24/04:00pm 23.1 16.1 6.0 33 8.7 SW 32 46 17 25 1015.2 1014.9 0.0
24/03:30pm 23.8 16.7 6.6 33 8.9 WSW 33 48 18 26 1014.9 1014.6 0.0
24/03:05pm 24.2 18.3 7.4 34 8.9 SW 28 46 15 25 1014.7 1014.4 0.0
24/03:00pm 23.4 16.8 6.2 33 8.8 SW 30 43 16 23 1014.8 1014.5 0.0
24/02:30pm 24.7 18.5 7.8 34 9.0 WSW 30 48 16 26 1014.5 1014.2 0.0
24/02:04pm 24.3 17.2 7.9 35 8.7 WSW 35 56 19 30 1014.4 1014.1 0.0
24/02:00pm 24.7 18.0 8.2 35 8.8 WSW 33 50 18 27 1014.5 1014.2 0.0
24/01:41pm 25.3 19.1 10.0 38 8.5 WSW 33 52 18 28 1014.5 1014.2 0.0
24/01:30pm 24.3 18.3 10.2 41 7.8 WSW 32 44 17 24 1014.3 1014.0 0.0
24/01:00pm 24.2 18.3 10.5 42 7.6 SW 32 46 17 25 1014.3 1014.0 0.0
24/12:30pm 24.3 19.0 9.8 40 8.0 WSW 28 43 15 23 1014.2 1013.9 0.0
24/12:00pm 24.9 20.1 10.4 40 8.1 SW 26 41 14 22 1013.9 1013.6 0.0
24/11:30am 23.8 18.8 8.2 37 8.3 SW 24 39 13 21 1013.7 1013.4 0.0
24/11:00am 24.0 20.2 11.0 44 7.3 S 22 32 12 17 1013.7 1013.4 0.0
24/10:30am 22.9 17.0 9.0 41 7.5 S 30 39 16 21 1013.5 1013.2 0.0
24/10:00am 21.0 15.1 10.5 51 5.7 S 32 39 17 21 1013.9 1013.6 0.0
24/09:30am 21.0 15.0 10.2 50 5.9 SSW 32 39 17 21 1013.9 1013.6 0.0
24/09:00am 20.1 15.7 11.6 58 4.7 SW 26 35 14 19 1013.4 1013.1 0.0
24/08:30am 19.1 15.0 11.4 61 4.2 SW 24 32 13 17 1013.2 1012.9 0.0
24/08:00am 18.4 15.4 12.4 68 3.4 SSW 20 28 11 15 1012.4 1012.2 0.0
24/07:30am 18.4 16.1 13.0 71 3.1 SSW 17 24 9 13 1011.7 1011.4 0.0
24/07:00am 17.0 15.4 12.9 77 2.3 S 13 19 7 10 1011.4 1011.1 0.0
24/06:30am 16.4 14.7 12.6 78 2.1 SSW 13 22 7 12 1010.8 1010.5 0.0
24/06:00am 16.8 14.0 13.3 80 2.0 SW 20 28 11 15 1009.6 1009.3 0.0
24/05:30am 16.8 15.0 12.1 74 2.6 SSW 13 19 7 10 1008.6 1008.3 0.0
24/05:00am 18.0 15.8 13.3 74 2.7 SSW 17 20 9 11 1007.8 1007.5 0.0
24/04:30am 19.5 17.4 12.5 64 4.0 S 15 20 8 11 1006.7 1006.4 0.0
24/04:00am 17.4 17.0 12.5 73 2.7 SSW 6 7 3 4 1005.9 1005.6 0.0
24/03:30am 17.4 16.9 12.5 73 2.7 SSW 7 9 4 5 1005.8 1005.5 0.0
24/03:00am 17.6 18.4 12.7 73 2.8 CALM 0 0 0 0 1005.9 1005.6 0.0
24/02:30am 18.0 18.7 12.2 69 3.2 CALM 0 0 0 0 1006.6 1006.3 0.0
24/02:00am 18.1 18.8 12.3 69 3.2 CALM 0 0 0 0 1006.9 1006.6 0.0
24/01:30am 18.4 18.3 12.2 67 3.5 SSW 4 6 2 3 1007.1 1006.8 0.0
24/01:00am 19.1 18.9 11.9 63 4.0 SSW 4 6 2 3 1007.5 1007.2 0.0
24/12:30am 19.4 18.2 11.7 61 4.3 SSW 9 9 5 5 1007.8 1007.5 0.0
24/12:00am 19.6 18.0 11.6 60 4.4 WSW 11 15 6 8 1008.4 1008.1 0.0
 
Date/Time
CDT
Temp
°C
App
Temp
°C
Dew
Point
Rel
Hum
%
Delta-T
°C
Wind Press
QNH
hPa
Press
MSL
hPa
Rain
since 9 am
mm
Dir
 
Spd
km/h
Gust
km/h
Spd
kts
Gust
kts
23/11:30pm 18.9 17.4 11.9 64 3.9 WNW 11 13 6 7 1008.8 1008.5 0.0
23/11:00pm 18.8 17.2 11.6 63 4.0 N 11 22 6 12 1009.8 1009.5 0.0
23/10:30pm 19.8 17.9 11.8 60 4.5 WSW 13 15 7 8 1009.4 1009.1 0.0
23/10:00pm 21.1 18.3 12.5 58 4.9 SSW 19 30 10 16 1008.8 1008.5 0.0
23/09:30pm 21.7 18.8 12.3 55 5.3 SSW 19 28 10 15 1008.2 1007.9 0.0
23/09:00pm 23.1 19.9 11.8 49 6.4 SSW 20 26 11 14 1007.9 1007.6 0.0
23/08:30pm 24.9 21.5 7.5 33 9.2 SW 15 20 8 11 1007.6 1007.3 0.0
23/08:00pm 25.7 22.5 6.8 30 9.9 SW 13 15 7 8 1007.4 1007.1 0.0
23/07:30pm 28.3 24.4 7.0 26 11.4 SSW 17 22 9 12 1007.1 1006.8 0.0
23/07:00pm 29.2 25.0 8.3 27 11.5 S 20 26 11 14 1006.8 1006.5 0.0
23/06:30pm 30.4 26.2 8.2 25 12.3 S 20 26 11 14 1007.0 1006.7 0.0
23/06:00pm 31.7 28.9 8.7 24 12.9 SSW 13 20 7 11 1007.3 1007.0 0.0
23/05:30pm 28.6 25.6 10.8 33 10.2 S 17 22 9 12 1008.0 1007.7 0.0
23/05:00pm 27.7 24.7 12.1 38 9.1 SSW 19 26 10 14 1008.5 1008.2 0.0
23/04:30pm 28.4 26.1 11.9 36 9.6 S 15 24 8 13 1009.0 1008.7 0.0
23/04:00pm 31.5 28.6 6.5 21 13.5 NNW 11 19 6 10 1009.6 1009.3 0.0
23/03:30pm 31.0 28.6 5.4 20 13.6 NE 7 20 4 11 1010.2 1009.9 0.0
23/03:00pm 31.8 29.4 5.3 19 14.1 NE 7 13 4 7 1010.9 1010.6 0.0
23/02:30pm 31.0 28.1 4.7 19 13.8 E 9 17 5 9 1010.6 1010.3 0.0
23/02:00pm 31.8 28.3 5.3 19 14.1 SSE 13 20 7 11 1010.8 1010.5 0.0
23/01:30pm 31.0 27.6 6.1 21 13.3 SSW 13 20 7 11 1011.5 1011.2 0.0
23/01:00pm 31.5 29.2 5.8 20 13.7 S 7 11 4 6 1011.7 1011.4 0.0
23/12:30pm 30.4 28.1 5.6 21 13.1 SSE 7 9 4 5 1011.5 1011.2 0.0
23/12:00pm 29.5 26.8 5.6 22 12.6 S 9 15 5 8 1011.5 1011.2 0.0
23/11:30am 28.7 26.8 6.7 25 11.8 N 6 17 3 9 1011.9 1011.7 0.0
23/11:00am 27.8 26.0 8.1 29 10.7 ENE 7 11 4 6 1012.0 1011.8 0.0
23/10:30am 25.6 23.9 9.8 37 8.8 NNE 9 15 5 8 1012.0 1011.8 0.0
23/10:00am 23.6 22.6 10.3 43 7.4 N 6 11 3 6 1012.0 1011.8 0.0
23/09:30am 22.1 21.3 11.8 52 5.8 ENE 7 11 4 6 1012.1 1011.9 0.0
23/09:00am 20.3 19.8 12.0 59 4.7 ENE 6 11 3 6 1012.3 1012.1 0.0
23/08:30am 18.1 17.6 11.9 67 3.4 ENE 6 9 3 5 1012.5 1012.3 0.0
23/08:00am 17.3 17.7 12.6 74 2.6 SW 2 7 1 4 1012.6 1012.4 0.0
23/07:30am 16.1 17.3 13.9 87 1.2 CALM 0 0 0 0 1012.4 1012.2 0.0
23/07:00am 14.1 13.7 13.0 93 0.6 SW 7 9 4 5 1012.3 1012.1 0.0
23/06:30am 11.6 9.5 11.1 97 0.3 SW 13 15 7 8 1012.0 1011.8 0.0
23/06:00am 10.6 10.7 10.0 96 0.3 CALM 0 0 0 0 1012.4 1012.2 0.0
23/05:30am 10.9 11.0 10.1 95 0.4 CALM 0 0 0 0 1012.6 1012.4 0.0
23/05:00am 11.2 11.4 10.4 95 0.4 CALM 0 0 0 0 1012.3 1012.1 0.0
23/04:30am 11.4 9.9 10.6 95 0.4 WSW 9 9 5 5 1012.4 1012.2 0.0
23/04:00am 11.4 9.9 10.6 95 0.4 W 9 9 5 5 1012.7 1012.5 0.0
23/03:30am 11.0 9.3 9.9 93 0.6 N 9 11 5 6 1012.6 1012.4 0.0
23/03:00am 11.6 9.9 10.0 90 0.8 SW 9 9 5 5 1012.3 1012.1 0.0
23/02:30am 12.4 10.4 10.3 87 1.1 SW 11 13 6 7 1012.3 1012.1 0.0
23/02:00am 13.0 11.5 10.5 85 1.3 S 9 11 5 6 1012.4 1012.2 0.0
23/01:30am 12.7 11.1 10.2 85 1.3 ESE 9 11 5 6 1012.4 1012.2 0.0
23/01:00am 12.5 11.3 9.5 82 1.5 WSW 6 9 3 5 1012.6 1012.4 0.0
23/12:30am 15.1 13.9 11.5 79 1.9 SSW 9 13 5 7 1012.9 1012.6 0.0
23/12:00am 16.1 13.8 11.9 76 2.3 SSW 15 20 8 11 1012.9 1012.6 0.0
 
Date/Time
CDT
Temp
°C
App
Temp
°C
Dew
Point
Rel
Hum
%
Delta-T
°C
Wind Press
QNH
hPa
Press
MSL
hPa
Rain
since 9 am
mm
Dir
 
Spd
km/h
Gust
km/h
Spd
kts
Gust
kts
22/11:30pm 16.3 15.2 13.0 81 1.8 S 11 15 6 8 1012.9 1012.6 0.0
22/11:00pm 17.0 16.0 13.5 80 2.0 SSE 11 17 6 9 1012.9 1012.6 0.0
22/10:30pm 17.9 16.1 13.2 74 2.7 SSE 15 20 8 11 1012.6 1012.4 0.0
22/10:00pm 19.1 16.1 12.4 65 3.8 S 20 30 11 16 1012.0 1011.8 0.0
22/09:30pm 19.9 16.1 12.4 62 4.2 S 24 33 13 18 1011.3 1011.0 0.0
22/09:00pm 20.6 16.7 14.5 68 3.6 S 28 41 15 22 1010.5 1010.2 0.0
22/08:30pm 21.9 19.0 15.0 65 4.1 SSW 24 33 13 18 1010.1 1009.8 0.0
22/08:00pm 23.9 20.1 12.5 49 6.6 S 24 35 13 19 1009.6 1009.3 0.0
22/07:30pm 25.2 21.4 13.7 49 6.8 S 26 39 14 21 1008.9 1008.6 0.0
22/07:00pm 26.5 23.0 14.6 48 7.2 S 26 35 14 19 1008.2 1007.9 0.0
22/06:30pm 27.5 22.8 14.8 45 7.7 S 33 44 18 24 1007.5 1007.2 0.0
22/06:00pm 29.8 25.2 13.5 36 9.8 SSW 30 41 16 22 1007.0 1006.7 0.0
22/05:30pm 31.7 26.0 11.0 28 12.1 SW 32 44 17 24 1006.4 1006.1 0.0
22/05:00pm 33.1 26.8 11.0 26 12.9 SW 35 44 19 24 1005.8 1005.5 0.0
22/04:30pm 33.5 28.5 10.8 25 13.3 SSW 28 43 15 23 1005.3 1005.0 0.0
22/04:00pm 34.4 28.6 10.9 24 13.8 SSW 32 46 17 25 1005.2 1004.9 0.0
22/03:52pm 34.7 28.8 10.5 23 14.1 S 32 46 17 25 1005.0 1004.7 0.0
22/03:30pm 37.0 33.1 9.6 19 16.0 W 20 28 11 15 1004.9 1004.6 0.0
22/03:00pm 35.9 32.6 9.4 20 15.4 WSW 17 26 9 14 1005.1 1004.8 0.0
22/02:30pm 36.0 32.5 10.9 22 14.9 WSW 20 24 11 13 1005.3 1005.0 0.0
22/02:00pm 34.3 30.6 10.2 23 14.0 SSW 20 33 11 18 1005.6 1005.3 0.0
22/01:30pm 34.5 30.3 11.0 24 13.9 S 24 39 13 21 1005.9 1005.6 0.0
22/01:00pm 34.9 31.5 10.7 23 14.2 SW 19 30 10 16 1006.0 1005.7 0.0
22/12:30pm 33.7 30.4 9.7 23 13.8 SSW 17 26 9 14 1005.8 1005.5 0.0
22/12:00pm 33.0 30.9 9.7 24 13.4 S 11 17 6 9 1006.3 1006.0 0.0
22/11:30am 32.1 28.1 9.0 24 13.1 SSW 20 28 11 15 1006.7 1006.4 0.0

Other Formats:

Comma delimited format used in spreadsheet applications
http://www.bom.gov.au/fwo/IDS60801/IDS60801.95670.axf

JavaScript Object Notation format (JSON) in row-major order
http://www.bom.gov.au/fwo/IDS60801/IDS60801.95670.json